Time;durP1;ratioP1;P1;durP2;ratioP2;P2;SDS_P1;SDS_P2;PMS_P1;PMS_P2;Temp;Humidity;BMP_temperature;BMP_pressure;BME280_temperature;BME280_humidity;BME280_pressure;Samples;Min_cycle;Max_cycle;Signal;HPM_P1;HPM_P2
2023/06/23 00:00:25;;;;;;;12.60;11.40;;;;;;;20.44;100.00;96020.50;7398529;19;20378;-68
2023/06/23 00:02:52;;;;;;;13.43;9.90;;;;;;;20.29;100.00;96013.66;7398283;19;20352;-68
2023/06/23 00:05:19;;;;;;;13.23;10.30;;;;;;;20.16;100.00;95996.53;7398019;19;20445;-68
2023/06/23 00:07:46;;;;;;;17.20;11.17;;;;;;;20.31;100.00;96019.44;7396484;19;20910;-68
2023/06/23 00:10:14;;;;;;;14.83;9.97;;;;;;;20.33;100.00;96017.13;7399629;19;20349;-68
2023/06/23 00:12:41;;;;;;;13.17;10.93;;;;;;;20.27;100.00;96007.94;7398236;19;20346;-68
2023/06/23 00:15:10;;;;;;;15.20;10.53;;;;;;;20.38;100.00;96019.34;7398719;19;20418;-68
2023/06/23 00:17:38;;;;;;;14.27;10.87;;;;;;;20.29;100.00;96014.44;7395004;19;20378;-68
2023/06/23 00:20:13;;;;;;;14.00;10.63;;;;;;;20.28;100.00;96030.94;7398467;19;20410;-68
2023/06/23 00:22:41;;;;;;;17.93;10.97;;;;;;;20.18;100.00;95997.69;7396721;19;20880;-68
2023/06/23 00:25:09;;;;;;;13.93;9.90;;;;;;;20.13;100.00;96008.81;7394615;19;20505;-68
2023/06/23 00:27:38;;;;;;;15.80;11.37;;;;;;;20.23;100.00;96029.47;7398771;19;20385;-67
2023/06/23 00:30:06;;;;;;;12.00;9.73;;;;;;;20.20;100.00;96034.88;7395554;19;20782;-68
2023/06/23 00:32:34;;;;;;;16.63;10.73;;;;;;;20.25;100.00;96035.19;7397042;19;20382;-67
2023/06/23 00:35:01;;;;;;;12.87;9.67;;;;;;;20.14;100.00;96036.44;7394464;19;20435;-68
2023/06/23 00:37:31;;;;;;;12.63;11.30;;;;;;;19.94;100.00;96018.19;7395439;19;20394;-67
2023/06/23 00:39:58;;;;;;;18.50;9.30;;;;;;;20.06;100.00;96039.19;7395343;19;20395;-68
2023/06/23 00:42:26;;;;;;;15.03;9.60;;;;;;;19.84;100.00;96021.69;7396248;19;20377;-68
2023/06/23 00:44:53;;;;;;;14.20;9.37;;;;;;;19.46;100.00;96007.31;7395042;19;20914;-68
2023/06/23 00:47:20;;;;;;;14.00;9.20;;;;;;;19.54;100.00;96026.84;7396845;19;20386;-68
2023/06/23 00:49:48;;;;;;;13.27;10.00;;;;;;;19.64;100.00;96050.19;7394869;19;20742;-68
2023/06/23 00:52:16;;;;;;;14.63;9.60;;;;;;;19.51;100.00;96027.63;7398497;19;20353;-68
2023/06/23 00:54:42;;;;;;;14.90;10.00;;;;;;;19.62;100.00;96031.00;7394655;19;20418;-68
2023/06/23 00:57:11;;;;;;;17.10;9.40;;;;;;;19.62;100.00;96031.78;7395671;19;20371;-68
2023/06/23 00:59:38;;;;;;;16.30;8.87;;;;;;;19.65;100.00;96036.38;7395434;19;20372;-68
2023/06/23 01:02:05;;;;;;;15.43;8.77;;;;;;;19.63;100.00;96032.53;7396272;19;20372;-68
2023/06/23 01:04:33;;;;;;;11.83;8.93;;;;;;;19.51;100.00;96033.00;7394950;19;20393;-68
2023/06/23 01:07:26;;;;;;;12.00;8.47;;;;;;;19.66;100.00;96063.97;7396827;19;20432;-68
2023/06/23 01:10:10;;;;;;;13.73;8.47;;;;;;;19.43;100.00;96033.00;7395470;19;20734;-68
2023/06/23 01:13:15;;;;;;;13.63;8.13;;;;;;;19.65;100.00;96067.81;7396299;19;20383;-68
2023/06/23 01:15:51;;;;;;;14.97;8.20;;;;;;;19.56;100.00;96043.31;7392043;19;20969;-68
2023/06/23 01:18:34;;;;;;;13.87;8.80;;;;;;;19.69;100.00;96069.31;7395070;19;20381;-68
2023/06/23 01:21:05;;;;;;;16.80;8.20;;;;;;;19.57;100.00;96047.53;7394821;19;20393;-68
2023/06/23 01:24:05;;;;;;;12.03;8.50;;;;;;;19.68;100.00;96080.44;7393367;19;20400;-68
2023/06/23 01:27:04;;;;;;;11.40;7.93;;;;;;;19.76;100.00;96081.91;7394244;19;20440;-68
2023/06/23 01:29:34;;;;;;;10.00;7.10;;;;;;;19.61;100.00;96075.84;7391581;19;20690;-69
2023/06/23 01:32:10;;;;;;;12.30;8.33;;;;;;;19.57;100.00;96075.13;7394583;19;20377;-68
2023/06/23 01:34:44;;;;;;;13.27;7.57;;;;;;;19.34;100.00;96058.72;7396881;19;20377;-68
2023/06/23 01:37:21;;;;;;;16.73;8.53;;;;;;;19.38;100.00;96078.25;7393996;19;20382;-69
2023/06/23 01:39:56;;;;;;;16.30;7.67;;;;;;;19.35;100.00;96081.69;7393245;19;20911;-68
2023/06/23 01:42:29;;;;;;;8.47;6.03;;;;;;;18.86;100.00;96057.34;7395236;19;20444;-68
2023/06/23 01:44:59;;;;;;;8.23;5.60;;;;;;;18.69;100.00;96028.66;7393026;19;20968;-68
2023/06/23 01:47:33;;;;;;;10.47;6.13;;;;;;;18.73;100.00;96055.47;7395566;19;20361;-68
2023/06/23 01:50:06;;;;;;;10.77;6.00;;;;;;;18.45;100.00;96034.81;7393819;19;20391;-68
2023/06/23 01:52:37;;;;;;;7.23;6.50;;;;;;;18.47;100.00;96053.94;7396196;19;20379;-68
2023/06/23 01:55:07;;;;;;;11.13;6.43;;;;;;;18.41;100.00;96066.16;7400043;19;20493;-68
2023/06/23 01:57:37;;;;;;;8.13;5.40;;;;;;;18.30;100.00;96063.50;7403317;19;20407;-68
2023/06/23 02:00:11;;;;;;;7.10;5.60;;;;;;;18.13;100.00;96069.59;7405375;19;20358;-68
2023/06/23 02:02:40;;;;;;;7.77;5.80;;;;;;;17.93;100.00;96069.19;7403759;19;20359;-68
2023/06/23 02:05:10;;;;;;;14.47;5.33;;;;;;;17.93;100.00;96069.97;7405047;19;20756;-68
2023/06/23 02:07:39;;;;;;;5.10;4.23;;;;;;;17.92;100.00;96071.09;7403477;19;20359;-68
2023/06/23 02:10:07;;;;;;;11.73;5.87;;;;;;;17.92;100.00;96070.34;7405393;19;20891;-68
2023/06/23 02:12:37;;;;;;;6.10;4.97;;;;;;;17.68;100.00;96055.75;7404484;19;20600;-68
2023/06/23 02:15:06;;;;;;;5.50;4.87;;;;;;;17.76;100.00;96081.38;7406506;19;20429;-68
2023/06/23 02:17:34;;;;;;;5.07;4.07;;;;;;;17.65;100.00;96075.97;7404209;19;20416;-68
2023/06/23 02:20:11;;;;;;;4.53;4.03;;;;;;;17.70;100.00;96072.97;7405985;19;20434;-68
2023/06/23 02:22:39;;;;;;;6.10;4.57;;;;;;;17.61;100.00;96074.41;7403865;19;20370;-68
2023/06/23 02:25:06;;;;;;;4.10;3.80;;;;;;;17.49;100.00;96066.75;7400679;19;20471;-68
2023/06/23 02:27:34;;;;;;;5.17;4.00;;;;;;;17.34;100.00;96053.31;7400748;19;20368;-68
2023/06/23 02:30:02;;;;;;;4.30;3.70;;;;;;;17.35;100.00;96064.78;7401712;19;20745;-68
2023/06/23 02:32:29;;;;;;;3.43;3.10;;;;;;;17.57;100.00;96079.75;7400394;19;20342;-68
2023/06/23 02:34:57;;;;;;;3.80;3.03;;;;;;;17.63;100.00;96080.94;7398355;19;20445;-68
2023/06/23 02:37:26;;;;;;;3.30;3.00;;;;;;;17.52;100.00;96088.16;7399329;19;20387;-68
2023/06/23 02:40:08;;;;;;;5.77;3.30;;;;;;;17.61;100.00;96093.91;7398712;19;20899;-68
2023/06/23 02:42:41;;;;;;;4.70;3.40;;;;;;;17.33;100.00;96043.03;7401164;19;20760;-68
2023/06/23 02:45:30;;;;;;;4.37;3.37;;;;;;;17.72;100.00;96092.06;7399084;19;20916;-68
2023/06/23 02:47:58;;;;;;;7.50;4.90;;;;;;;17.79;100.00;96091.31;7398749;19;20358;-68
2023/06/23 02:50:32;;;;;;;5.43;3.73;;;;;;;17.70;100.00;96093.59;7399902;19;20903;-68
2023/06/23 02:53:04;;;;;;;3.53;3.23;;;;;;;17.54;100.00;96083.19;7399089;19;20379;-68
2023/06/23 02:55:38;;;;;;;4.90;3.07;;;;;;;17.66;100.00;96090.13;7399350;19;20789;-68
2023/06/23 02:58:12;;;;;;;4.90;3.77;;;;;;;17.62;100.00;96065.25;7397212;19;20728;-68
2023/06/23 03:00:40;;;;;;;3.73;3.43;;;;;;;17.72;100.00;96084.03;7401552;19;20405;-68
2023/06/23 03:03:12;;;;;;;5.93;3.00;;;;;;;17.82;100.00;96089.81;7399397;19;20387;-68
2023/06/23 03:05:40;;;;;;;5.20;3.17;;;;;;;17.78;100.00;96100.50;7401235;19;20925;-68
2023/06/23 03:08:07;;;;;;;6.50;3.20;;;;;;;17.88;100.00;96098.97;7399527;19;20408;-68
2023/06/23 03:10:34;;;;;;;5.70;2.97;;;;;;;17.83;100.00;96086.75;7397669;19;20919;-69
2023/06/23 03:13:01;;;;;;;3.77;3.47;;;;;;;17.89;100.00;96087.88;7399183;19;20748;-68
2023/06/23 03:15:29;;;;;;;3.77;3.47;;;;;;;17.90;100.00;96102.06;7396446;19;20414;-68
2023/06/23 03:18:23;;;;;;;3.10;2.83;;;;;;;17.64;100.00;96079.03;7398640;19;20370;-68
2023/06/23 03:20:52;;;;;;;5.00;3.70;;;;;;;17.78;100.00;96100.50;7401980;19;20756;-68
2023/06/23 03:23:24;;;;;;;3.27;2.70;;;;;;;17.50;100.00;96073.66;7404810;19;20397;-68
2023/06/23 03:25:51;;;;;;;3.07;2.73;;;;;;;17.51;100.00;96081.28;7399480;19;20420;-68
2023/06/23 03:28:40;;;;;;;5.20;2.73;;;;;;;17.50;100.00;96079.00;7400375;19;20760;-68
2023/06/23 03:31:12;;;;;;;4.37;3.10;;;;;;;17.50;100.00;96073.66;7401065;19;20343;-68
2023/06/23 03:33:44;;;;;;;5.20;2.73;;;;;;;17.69;100.00;96108.09;7398813;19;20379;-68
2023/06/23 03:36:24;;;;;;;3.30;3.00;;;;;;;17.51;100.00;96078.63;7398195;19;20979;-68
2023/06/23 03:39:07;;;;;;;2.73;2.50;;;;;;;17.70;100.00;96101.59;7398297;19;20362;-68
2023/06/23 03:41:40;;;;;;;2.40;2.20;;;;;;;17.64;100.00;96105.78;7399078;19;20923;-68
2023/06/23 03:44:14;;;;;;;5.30;2.40;;;;;;;17.66;100.00;96109.59;7399007;19;20389;-68
2023/06/23 03:46:46;;;;;;;2.90;2.70;;;;;;;17.64;100.00;96111.88;7395561;19;20773;-68
2023/06/23 03:49:16;;;;;;;2.30;2.20;;;;;;;17.53;100.00;96102.28;7400948;19;20431;-69
2023/06/23 03:51:47;;;;;;;3.47;3.17;;;;;;;17.47;100.00;96095.75;7397771;19;20392;-68
2023/06/23 03:54:16;;;;;;;2.83;2.50;;;;;;;17.61;100.00;96112.63;7399614;19;20742;-68
2023/06/23 03:56:46;;;;;;;3.50;2.33;;;;;;;17.68;100.00;96109.22;7397858;19;20343;-69
2023/06/23 03:59:16;;;;;;;3.00;2.67;;;;;;;17.43;100.00;96093.09;7396297;19;20335;-69
2023/06/23 04:01:44;;;;;;;2.47;2.30;;;;;;;17.69;100.00;96106.19;7399745;19;20348;-68
2023/06/23 04:04:15;;;;;;;2.60;2.40;;;;;;;17.66;100.00;96095.47;7396484;19;20403;-69
2023/06/23 04:06:45;;;;;;;3.10;2.90;;;;;;;17.69;100.00;96095.50;7399182;19;20347;-68
2023/06/23 04:09:14;;;;;;;2.57;2.30;;;;;;;17.91;100.00;96122.31;7396183;19;20373;-69
2023/06/23 04:11:43;;;;;;;5.07;2.90;;;;;;;17.90;100.00;96121.56;7397874;19;20356;-69
2023/06/23 04:14:13;;;;;;;2.30;1.77;;;;;;;17.93;100.00;96115.44;7396269;19;20881;-69
2023/06/23 04:16:42;;;;;;;2.83;2.27;;;;;;;17.76;100.00;96092.06;7394665;19;20467;-69
2023/06/23 04:19:11;;;;;;;5.20;2.53;;;;;;;17.93;100.00;96112.00;7394486;19;20383;-69
2023/06/23 04:21:40;;;;;;;3.80;2.73;;;;;;;17.79;100.00;96096.69;7398004;19;20411;-68
2023/06/23 04:24:09;;;;;;;2.50;2.30;;;;;;;17.80;100.00;96105.47;7396663;19;20379;-69
2023/06/23 04:26:36;;;;;;;2.83;2.60;;;;;;;17.87;100.00;96126.88;7396273;19;20425;-68
2023/06/23 04:29:07;;;;;;;2.43;2.27;;;;;;;17.48;100.00;96089.28;7397897;19;20378;-68
2023/06/23 04:31:36;;;;;;;4.30;3.50;;;;;;;17.42;100.00;96102.25;7399411;19;20348;-68
2023/06/23 04:34:03;;;;;;;3.30;3.00;;;;;;;17.36;100.00;96131.25;7396449;19;20491;-68
2023/06/23 04:36:39;;;;;;;2.60;2.40;;;;;;;17.18;100.00;96125.03;7394632;19;20490;-68
2023/06/23 04:39:15;;;;;;;3.17;2.70;;;;;;;17.04;100.00;96135.63;7396552;19;20395;-68
2023/06/23 04:41:47;;;;;;;3.20;2.90;;;;;;;16.89;100.00;96140.13;7395646;19;20379;-69
2023/06/23 04:44:18;;;;;;;3.03;2.80;;;;;;;16.81;100.00;96149.97;7397149;19;20682;-68
2023/06/23 04:46:48;;;;;;;7.37;3.43;;;;;;;16.72;100.00;96127.41;7395631;19;20376;-68
2023/06/23 04:49:21;;;;;;;4.13;3.83;;;;;;;16.81;100.00;96160.66;7398656;19;20345;-68
2023/06/23 04:51:52;;;;;;;5.80;3.60;;;;;;;16.64;100.00;96149.81;7396056;19;20381;-68
2023/06/23 04:54:25;;;;;;;5.60;4.00;;;;;;;16.75;100.00;96172.81;7395719;19;20346;-68
2023/06/23 04:57:00;;;;;;;4.27;3.87;;;;;;;16.67;100.00;96175.78;7395820;19;20399;-68
2023/06/23 04:59:33;;;;;;;4.40;4.00;;;;;;;16.79;100.00;96173.63;7394642;19;20920;-68
2023/06/23 05:02:02;;;;;;;4.60;4.07;;;;;;;16.64;100.00;96181.84;7397957;19;20342;-68
2023/06/23 05:04:33;;;;;;;5.20;4.10;;;;;;;16.65;100.00;96181.47;7394473;19;20371;-68
2023/06/23 05:07:02;;;;;;;5.00;4.50;;;;;;;16.67;100.00;96189.13;7396609;19;20405;-69
2023/06/23 05:09:31;;;;;;;5.80;4.77;;;;;;;16.29;100.00;96167.03;7395840;19;20365;-68
2023/06/23 05:12:00;;;;;;;4.53;4.13;;;;;;;16.41;100.00;96214.81;7397006;19;20375;-69
2023/06/23 05:14:29;;;;;;;7.70;4.23;;;;;;;16.51;100.00;96205.38;7396183;19;20351;-69
2023/06/23 05:16:59;;;;;;;5.83;5.27;;;;;;;16.61;100.00;96203.94;7396466;19;20372;-68
2023/06/23 05:19:29;;;;;;;5.60;4.80;;;;;;;16.55;100.00;96206.16;7393492;19;20402;-68
2023/06/23 05:21:58;;;;;;;5.60;5.10;;;;;;;16.58;100.00;96207.38;7393838;19;20348;-69
2023/06/23 05:24:27;;;;;;;5.37;4.90;;;;;;;16.54;100.00;96207.31;7394674;19;20379;-69
2023/06/23 05:26:59;;;;;;;4.57;4.17;;;;;;;16.46;100.00;96189.72;7393815;19;20390;-69
2023/06/23 05:29:27;;;;;;;6.27;5.63;;;;;;;16.38;100.00;96193.44;7400248;19;20370;-68
2023/06/23 05:31:56;;;;;;;6.37;5.77;;;;;;;16.43;100.00;96227.81;7401744;19;20349;-69
2023/06/23 05:34:24;;;;;;;6.10;5.37;;;;;;;16.44;100.00;96216.78;7402482;19;20357;-69
2023/06/23 05:36:53;;;;;;;6.40;5.20;;;;;;;16.50;100.00;96228.63;7401713;19;20388;-69
2023/06/23 05:39:23;;;;;;;6.50;5.90;;;;;;;16.42;100.00;96223.59;7400147;19;20414;-69
2023/06/23 05:41:50;;;;;;;5.63;5.13;;;;;;;16.22;100.00;96185.66;7402945;19;20747;-68
2023/06/23 05:44:17;;;;;;;6.10;5.50;;;;;;;16.43;100.00;96225.16;7403434;19;20405;-69
2023/06/23 05:46:47;;;;;;;5.50;5.00;;;;;;;16.11;100.00;96185.53;7401803;19;20398;-69
2023/06/23 05:49:19;;;;;;;6.60;5.80;;;;;;;16.44;100.00;96240.03;7403183;19;20401;-69
2023/06/23 05:51:51;;;;;;;7.03;6.30;;;;;;;16.40;100.00;96242.63;7401500;19;20921;-69
2023/06/23 05:54:21;;;;;;;5.90;5.30;;;;;;;16.29;100.00;96227.63;7404597;19;20381;-69
2023/06/23 05:56:54;;;;;;;11.20;6.07;;;;;;;16.38;100.00;96252.91;7402355;19;20886;-69
2023/06/23 05:59:28;;;;;;;6.83;5.70;;;;;;;16.36;100.00;96247.19;7399139;19;20413;-68
2023/06/23 06:01:58;;;;;;;6.13;5.50;;;;;;;16.55;100.00;96251.56;7402104;19;20377;-69
2023/06/23 06:04:32;;;;;;;6.60;6.07;;;;;;;16.40;100.00;96245.31;7400449;19;20378;-69
2023/06/23 06:07:01;;;;;;;5.60;5.20;;;;;;;16.36;100.00;96259.75;7401988;19;20397;-69
2023/06/23 06:09:30;;;;;;;7.33;5.43;;;;;;;16.14;100.00;96240.06;7400585;19;20377;-69
2023/06/23 06:11:58;;;;;;;5.70;5.20;;;;;;;16.29;100.00;96262.31;7401951;19;20732;-68
2023/06/23 06:14:30;;;;;;;7.73;6.93;;;;;;;16.34;100.00;96260.13;7401117;19;20385;-69
2023/06/23 06:16:59;;;;;;;6.70;5.83;;;;;;;16.08;100.00;96238.84;7403767;19;20362;-69
2023/06/23 06:19:28;;;;;;;6.07;5.47;;;;;;;16.19;100.00;96251.19;7398598;19;20387;-69
2023/06/23 06:21:57;;;;;;;6.40;5.47;;;;;;;16.27;100.00;96257.34;7403802;19;20345;-69
2023/06/23 06:24:25;;;;;;;6.00;5.40;;;;;;;16.20;100.00;96243.94;7400810;19;20389;-69
2023/06/23 06:26:56;;;;;;;6.37;5.60;;;;;;;16.40;100.00;96272.00;7404181;19;20709;-69
2023/06/23 06:29:24;;;;;;;6.00;5.40;;;;;;;16.35;100.00;96272.31;7400926;19;20393;-69
2023/06/23 06:31:53;;;;;;;7.00;6.30;;;;;;;16.38;100.00;96276.94;7399525;19;20377;-69
2023/06/23 06:34:24;;;;;;;7.07;6.37;;;;;;;16.53;100.00;96277.84;7400415;19;20347;-69
2023/06/23 06:36:53;;;;;;;6.37;5.77;;;;;;;16.58;100.00;96282.09;7399730;19;20876;-69
2023/06/23 06:39:22;;;;;;;7.43;4.83;;;;;;;16.48;100.00;96272.84;7397767;19;20372;-69
2023/06/23 06:41:50;;;;;;;5.23;4.83;;;;;;;16.23;100.00;96267.22;7399005;19;20410;-69
2023/06/23 06:44:18;;;;;;;6.37;5.87;;;;;;;16.19;100.00;96282.44;7401283;19;20373;-69
2023/06/23 06:46:46;;;;;;;6.23;5.73;;;;;;;16.25;100.00;96296.97;7399645;19;20375;-69
2023/06/23 06:49:15;;;;;;;5.97;5.47;;;;;;;16.25;100.00;96287.06;7402536;19;20351;-69
2023/06/23 06:51:44;;;;;;;5.73;5.07;;;;;;;16.44;100.00;96307.50;7399534;19;20380;-69
2023/06/23 06:54:11;;;;;;;5.93;4.87;;;;;;;16.32;100.00;96301.66;7400963;19;20373;-69
2023/06/23 06:56:41;;;;;;;6.47;5.90;;;;;;;16.32;100.00;96313.09;7397122;19;20401;-69
2023/06/23 06:59:08;;;;;;;8.67;5.57;;;;;;;16.10;100.00;96268.59;7399444;19;20354;-69
2023/06/23 07:01:37;;;;;;;6.33;5.80;;;;;;;15.85;100.00;96247.72;7399236;19;20731;-69
2023/06/23 07:04:04;;;;;;;6.50;5.97;;;;;;;16.25;100.00;96313.00;7398209;19;20421;-69
2023/06/23 07:06:34;;;;;;;5.97;5.47;;;;;;;16.17;100.00;96292.72;7398641;19;20411;-69
2023/06/23 07:09:00;;;;;;;5.60;5.10;;;;;;;16.27;100.00;96287.47;7399664;19;20757;-69
2023/06/23 07:11:30;;;;;;;5.30;4.70;;;;;;;16.13;100.00;96300.66;7401067;19;20913;-69
2023/06/23 07:13:57;;;;;;;6.50;6.00;;;;;;;16.03;100.00;96293.31;7397724;19;20781;-69
2023/06/23 07:16:30;;;;;;;7.20;6.33;;;;;;;15.92;100.00;96295.81;7398693;19;20429;-69
2023/06/23 07:18:57;;;;;;;6.87;6.27;;;;;;;15.85;100.00;96287.72;7396858;19;20385;-68
2023/06/23 07:21:24;;;;;;;8.70;6.00;;;;;;;15.86;100.00;96286.59;7399721;19;20388;-68
2023/06/23 07:23:51;;;;;;;6.70;5.53;;;;;;;15.92;100.00;96309.16;7398058;19;20373;-68
2023/06/23 07:26:18;;;;;;;7.80;5.70;;;;;;;15.77;100.00;96280.00;7397362;19;20428;-68
2023/06/23 07:28:45;;;;;;;7.13;6.43;;;;;;;15.76;100.00;96297.09;7397932;19;20413;-68
2023/06/23 07:31:11;;;;;;;6.77;6.07;;;;;;;15.82;100.00;96298.34;7399038;19;20418;-67
2023/06/23 07:33:40;;;;;;;8.27;7.47;;;;;;;15.73;100.00;96308.50;7397720;19;20350;-68
2023/06/23 07:36:07;;;;;;;7.57;6.00;;;;;;;15.58;100.00;96286.16;7397538;19;20810;-68
2023/06/23 07:38:34;;;;;;;7.27;6.57;;;;;;;15.64;100.00;96320.19;7397083;19;20368;-68
2023/06/23 07:41:01;;;;;;;7.70;7.07;;;;;;;15.70;100.00;96304.66;7399176;19;20369;-68
2023/06/23 07:43:28;;;;;;;6.70;6.13;;;;;;;15.63;100.00;96288.56;7398280;19;20393;-68
2023/06/23 07:45:55;;;;;;;8.07;7.17;;;;;;;15.94;100.00;96308.78;7397724;19;20434;-68
2023/06/23 07:48:22;;;;;;;7.70;6.70;;;;;;;15.95;100.00;96313.00;7399514;19;20874;-68
2023/06/23 07:50:49;;;;;;;9.53;7.40;;;;;;;16.09;100.00;96318.50;7397233;19;20390;-68
2023/06/23 07:53:16;;;;;;;10.03;9.03;;;;;;;16.03;100.00;96316.53;7397700;19;20365;-68
2023/06/23 07:55:43;;;;;;;5.77;5.27;;;;;;;15.82;100.00;96312.44;7397602;19;20425;-68
2023/06/23 07:58:10;;;;;;;8.03;7.23;;;;;;;15.86;100.00;96318.59;7397075;19;20342;-68
2023/06/23 08:00:37;;;;;;;6.90;6.30;;;;;;;15.74;100.00;96302.03;7399105;19;20350;-68
2023/06/23 08:03:04;;;;;;;6.23;5.73;;;;;;;15.76;100.00;96334.41;7407816;19;20382;-68
2023/06/23 08:05:31;;;;;;;6.30;5.80;;;;;;;15.84;100.00;96328.84;7418151;19;20417;-68
2023/06/23 08:07:58;;;;;;;6.33;5.73;;;;;;;15.66;100.00;96312.59;7408785;19;20346;-68
2023/06/23 08:10:25;;;;;;;6.17;5.67;;;;;;;15.74;100.00;96315.34;7398811;19;20374;-68
2023/06/23 08:12:52;;;;;;;5.53;5.03;;;;;;;15.98;100.00;96332.84;7397786;19;20476;-69
2023/06/23 08:15:19;;;;;;;5.87;5.37;;;;;;;15.81;100.00;96315.47;7397510;19;20779;-68
2023/06/23 08:17:46;;;;;;;5.37;4.87;;;;;;;15.79;100.00;96339.06;7398524;19;20365;-69
2023/06/23 08:20:16;;;;;;;5.77;5.20;;;;;;;15.61;100.00;96328.13;7396999;19;20412;-68
2023/06/23 08:22:43;;;;;;;6.37;5.83;;;;;;;15.65;100.00;96312.97;7396495;19;20369;-68
2023/06/23 08:25:10;;;;;;;5.40;5.00;;;;;;;15.78;100.00;96340.97;7398030;19;20772;-68
2023/06/23 08:27:37;;;;;;;6.57;4.93;;;;;;;15.52;100.00;96308.94;7397018;19;20370;-69
2023/06/23 08:30:05;;;;;;;5.03;4.73;;;;;;;15.51;100.00;96318.06;7397759;19;20458;-69
2023/06/23 08:32:32;;;;;;;6.77;6.07;;;;;;;15.78;100.00;96343.63;7396859;19;20370;-69
2023/06/23 08:35:00;;;;;;;5.40;4.90;;;;;;;15.65;100.00;96326.28;7394161;19;20831;-69
2023/06/23 08:37:27;;;;;;;4.07;3.70;;;;;;;15.67;100.00;96332.03;7396854;19;20350;-68
2023/06/23 08:39:59;;;;;;;5.27;4.80;;;;;;;15.66;100.00;96352.59;7393697;19;20401;-69
2023/06/23 08:42:26;;;;;;;5.27;4.87;;;;;;;15.69;100.00;96359.09;7396345;19;20737;-69
2023/06/23 08:44:58;;;;;;;4.63;4.20;;;;;;;15.80;100.00;96365.34;7394979;19;20402;-69
2023/06/23 08:47:28;;;;;;;5.90;4.47;;;;;;;15.52;100.00;96335.59;7397077;19;20345;-69
2023/06/23 08:49:56;;;;;;;5.07;4.23;;;;;;;15.60;100.00;96353.22;7397284;19;20712;-69
2023/06/23 08:52:26;;;;;;;4.90;4.40;;;;;;;15.59;100.00;96363.13;7396778;19;20392;-69
2023/06/23 08:54:54;;;;;;;4.00;3.60;;;;;;;15.53;100.00;96367.19;7394911;19;20393;-69
2023/06/23 08:57:21;;;;;;;4.97;4.57;;;;;;;15.61;100.00;96360.09;7398469;19;20750;-68
2023/06/23 08:59:48;;;;;;;4.83;4.43;;;;;;;15.68;100.00;96365.56;7394206;19;21033;-68
2023/06/23 09:02:15;;;;;;;9.03;3.97;;;;;;;15.55;100.00;96362.28;7397953;19;20722;-68
2023/06/23 09:04:43;;;;;;;4.33;4.03;;;;;;;15.48;100.00;96364.06;7396610;19;20405;-68
2023/06/23 09:07:10;;;;;;;4.23;3.83;;;;;;;15.52;100.00;96367.56;7397110;19;20445;-68
2023/06/23 09:09:37;;;;;;;3.93;3.53;;;;;;;15.65;100.00;96382.28;7395588;19;20353;-68
2023/06/23 09:12:05;;;;;;;5.17;4.37;;;;;;;15.84;100.00;96384.06;7396535;19;20379;-69
2023/06/23 09:14:35;;;;;;;4.70;4.30;;;;;;;15.74;100.00;96379.34;7395028;19;20374;-70
2023/06/23 09:17:02;;;;;;;5.13;4.00;;;;;;;15.63;100.00;96390.63;7393536;19;20935;-69
2023/06/23 09:19:32;;;;;;;4.30;4.00;;;;;;;15.47;100.00;96367.84;7395922;19;20771;-69
2023/06/23 09:22:00;;;;;;;4.70;4.40;;;;;;;15.46;100.00;96406.28;7394481;19;20392;-69
2023/06/23 09:24:42;;;;;;;4.70;4.30;;;;;;;15.42;100.00;96394.81;7395439;19;20405;-68
2023/06/23 09:27:10;;;;;;;4.10;3.80;;;;;;;15.47;100.00;96405.16;7396118;19;20369;-69
2023/06/23 09:29:39;;;;;;;5.43;5.03;;;;;;;15.44;100.00;96397.88;7395561;19;20671;-68
2023/06/23 09:32:09;;;;;;;5.03;4.63;;;;;;;14.96;100.00;96354.84;7394395;19;20365;-68
2023/06/23 09:34:40;;;;;;;4.30;3.90;;;;;;;14.95;100.00;96363.91;7395627;19;20395;-68
2023/06/23 09:37:10;;;;;;;4.53;4.10;;;;;;;15.31;100.00;96406.03;7395941;19;20462;-68
2023/06/23 09:39:41;;;;;;;4.07;3.40;;;;;;;15.31;100.00;96395.38;7395163;19;20421;-68
2023/06/23 09:42:12;;;;;;;4.63;4.23;;;;;;;15.20;100.00;96388.31;7395884;19;20466;-67
2023/06/23 09:44:41;;;;;;;4.17;3.77;;;;;;;15.30;100.00;96417.81;7392850;19;20432;-68
2023/06/23 09:47:08;;;;;;;3.73;3.43;;;;;;;15.25;100.00;96417.34;7394687;19;20353;-68
2023/06/23 09:49:39;;;;;;;4.77;4.17;;;;;;;15.45;100.00;96428.72;7392967;19;20384;-68
2023/06/23 09:52:07;;;;;;;4.80;4.37;;;;;;;15.52;100.00;96426.19;7394905;19;20348;-68
2023/06/23 09:54:39;;;;;;;3.77;3.47;;;;;;;15.39;100.00;96428.25;7392819;19;20361;-68
2023/06/23 09:57:14;;;;;;;3.83;3.63;;;;;;;15.46;100.00;96423.03;7395357;19;20378;-68
2023/06/23 09:59:44;;;;;;;4.13;3.80;;;;;;;15.37;100.00;96417.19;7392527;19;20353;-69
2023/06/23 10:02:31;;;;;;;4.50;4.10;;;;;;;15.45;100.00;96437.50;7394763;19;20560;-68
2023/06/23 10:05:03;;;;;;;3.80;3.50;;;;;;;15.42;100.00;96427.53;7393494;19;20965;-68
2023/06/23 10:07:31;;;;;;;4.10;3.80;;;;;;;15.34;100.00;96423.97;7392873;19;20386;-68
2023/06/23 10:10:01;;;;;;;4.80;4.33;;;;;;;15.52;100.00;96444.84;7395789;19;20353;-69
2023/06/23 10:12:48;;;;;;;3.87;3.50;;;;;;;15.61;100.00;96414.19;7394322;19;20695;-68
2023/06/23 10:15:15;;;;;;;4.00;3.70;;;;;;;15.59;100.00;96439.63;7397973;19;20457;-69
2023/06/23 10:17:44;;;;;;;5.37;3.73;;;;;;;15.49;100.00;96453.53;7401184;19;20374;-69
2023/06/23 10:20:12;;;;;;;4.20;3.80;;;;;;;15.41;100.00;96426.00;7400379;19;20361;-69
2023/06/23 10:22:40;;;;;;;4.70;4.27;;;;;;;15.40;100.00;96432.47;7400604;19;20373;-69
2023/06/23 10:25:09;;;;;;;4.73;4.33;;;;;;;15.65;100.00;96451.56;7397690;19;20430;-69
2023/06/23 10:27:40;;;;;;;5.23;4.73;;;;;;;15.70;100.00;96455.84;7401261;19;20385;-69
2023/06/23 10:30:10;;;;;;;4.50;3.87;;;;;;;15.47;100.00;96423.81;7399597;19;20673;-69
2023/06/23 10:32:40;;;;;;;4.50;4.17;;;;;;;15.44;100.00;96427.97;7401175;19;20400;-69
2023/06/23 10:35:10;;;;;;;4.40;4.03;;;;;;;15.41;100.00;96452.66;7398788;19;20425;-69
2023/06/23 10:37:40;;;;;;;4.40;4.00;;;;;;;15.28;100.00;96454.72;7401639;19;20701;-69
2023/06/23 10:40:18;;;;;;;4.97;4.60;;;;;;;14.92;100.00;96423.97;7399862;19;20393;-69
2023/06/23 10:42:48;;;;;;;5.40;4.97;;;;;;;15.03;100.00;96462.22;7401157;19;20390;-69
2023/06/23 10:45:16;;;;;;;5.60;4.77;;;;;;;14.90;100.00;96444.09;7399064;19;20445;-69
2023/06/23 10:47:44;;;;;;;5.33;4.83;;;;;;;15.20;100.00;96477.00;7401483;19;20352;-68
2023/06/23 10:50:12;;;;;;;6.00;5.50;;;;;;;14.73;100.00;96421.31;7401792;19;20686;-68
2023/06/23 10:52:39;;;;;;;5.63;5.13;;;;;;;14.88;100.00;96457.75;7401530;19;20909;-68
2023/06/23 10:55:36;;;;;;;5.53;4.73;;;;;;;14.94;100.00;96466.97;7399033;19;20432;-68
2023/06/23 10:58:19;;;;;;;13.23;5.07;;;;;;;15.08;100.00;96485.91;7399478;19;20750;-69
2023/06/23 11:00:58;;;;;;;5.07;4.60;;;;;;;15.02;100.00;96478.56;7396493;19;20386;-68
2023/06/23 11:03:33;;;;;;;5.00;4.60;;;;;;;14.98;100.00;96486.47;7401424;19;20407;-68
2023/06/23 11:06:08;;;;;;;4.97;4.57;;;;;;;15.17;100.00;96495.59;7399445;19;20433;-68
2023/06/23 11:08:37;;;;;;;4.80;4.40;;;;;;;15.18;100.00;96484.56;7401496;19;20373;-68
2023/06/23 11:11:06;;;;;;;4.47;4.17;;;;;;;15.48;100.00;96483.97;7398762;19;20784;-68
2023/06/23 11:13:41;;;;;;;4.97;4.53;;;;;;;15.71;100.00;96492.03;7400730;19;20699;-69
2023/06/23 11:16:26;;;;;;;5.83;5.33;;;;;;;15.72;100.00;96496.22;7399290;19;20929;-69
2023/06/23 11:18:57;;;;;;;4.47;4.13;;;;;;;15.97;100.00;96497.41;7397992;19;20370;-68
2023/06/23 11:21:30;;;;;;;5.60;4.50;;;;;;;15.94;100.00;96498.91;7399941;19;20849;-68
2023/06/23 11:24:09;;;;;;;4.63;4.23;;;;;;;15.87;100.00;96498.78;7398642;19;20410;-69
2023/06/23 11:26:41;;;;;;;4.60;4.17;;;;;;;15.67;100.00;96470.66;7392816;19;20981;-69
2023/06/23 11:29:11;;;;;;;4.23;3.90;;;;;;;15.83;100.00;96500.63;7400291;19;20730;-69
2023/06/23 11:32:06;;;;;;;5.00;4.60;;;;;;;15.79;100.00;96515.03;7396895;19;20381;-69
2023/06/23 11:34:57;;;;;;;4.10;3.80;;;;;;;15.78;100.00;96503.59;7399669;19;20409;-69
2023/06/23 11:37:31;;;;;;;4.13;3.80;;;;;;;15.81;100.00;96504.78;7398208;19;20401;-69
2023/06/23 11:39:58;;;;;;;7.00;4.30;;;;;;;15.69;100.00;96511.03;7397972;19;20358;-69